Time;durP1;ratioP1;P1;durP2;ratioP2;P2;SDS_P1;SDS_P2;PMS_P1;PMS_P2;Temp;Humidity;BMP_temperature;BMP_pressure;BME280_temperature;BME280_humidity;BME280_pressure;Samples;Min_cycle;Max_cycle;Signal;HPM_P1;HPM_P2
2022/04/29 00:00:18;;;;;;;20.55;12.07;;;9.40;99.90;;;8.23;92.91;101865.06;4952073;28;20043;-83
2022/04/29 00:02:47;;;;;;;19.42;12.50;;;9.40;99.90;;;8.22;93.14;101866.03;4952323;28;20053;-83
2022/04/29 00:05:16;;;;;;;24.40;13.02;;;9.50;99.90;;;8.19;94.06;101874.47;4952337;28;20092;-83
2022/04/29 00:07:43;;;;;;;22.20;13.10;;;9.40;99.90;;;8.17;94.14;101879.16;4950985;28;20040;-83
2022/04/29 00:10:14;;;;;;;25.30;12.68;;;9.40;99.90;;;8.17;93.86;101869.19;4952099;28;20070;-83
2022/04/29 00:12:43;;;;;;;20.70;13.48;;;9.40;99.90;;;8.16;94.56;101872.88;4935003;29;20055;-83
2022/04/29 00:15:12;;;;;;;24.52;13.27;;;9.40;99.90;;;8.14;94.29;101872.16;4952227;28;20047;-83
2022/04/29 00:17:41;;;;;;;23.77;13.00;;;9.30;99.90;;;8.13;94.55;101875.00;4951127;28;20129;-83
2022/04/29 00:20:10;;;;;;;23.23;13.55;;;9.30;99.90;;;8.13;94.76;101866.84;4951442;28;20122;-83
2022/04/29 00:22:38;;;;;;;23.73;12.98;;;9.30;99.90;;;8.13;94.82;101862.31;4952077;28;20047;-82
2022/04/29 00:25:08;;;;;;;25.63;13.90;;;9.30;99.90;;;8.11;95.50;101863.41;4952294;28;20074;-82
2022/04/29 00:27:36;;;;;;;21.48;12.82;;;9.30;99.90;;;8.14;95.14;101874.84;4951941;28;20085;-83
2022/04/29 00:30:06;;;;;;;24.20;13.38;;;9.30;99.90;;;8.16;95.06;101872.00;4951778;28;20051;-82
2022/04/29 00:32:35;;;;;;;23.83;13.63;;;9.30;99.90;;;8.15;95.55;101873.88;4950774;28;20078;-83
2022/04/29 00:35:04;;;;;;;22.10;13.77;;;9.30;99.90;;;8.13;95.46;101872.28;4949551;28;20055;-83
2022/04/29 00:37:31;;;;;;;26.55;14.20;;;9.30;99.90;;;8.13;95.25;101875.88;4956273;28;20036;-83
2022/04/29 00:39:59;;;;;;;25.50;14.45;;;9.30;99.90;;;8.13;95.82;101866.84;4949911;28;20131;-83
2022/04/29 00:42:27;;;;;;;22.83;14.60;;;9.30;99.90;;;8.14;95.97;101860.44;4950751;28;20054;-83
2022/04/29 00:44:54;;;;;;;20.85;14.02;;;9.30;99.90;;;8.12;95.16;101860.56;4955015;28;20454;-83
2022/04/29 00:47:22;;;;;;;22.42;14.07;;;9.30;99.90;;;8.13;95.17;101859.59;4947286;28;20047;-83
2022/04/29 00:49:51;;;;;;;24.77;14.13;;;9.30;99.90;;;8.07;95.32;101845.72;4947846;29;20043;-83
2022/04/29 00:52:20;;;;;;;28.77;15.75;;;9.30;99.90;;;8.06;95.85;101850.28;4951772;28;20040;-83
2022/04/29 00:54:55;;;;;;;26.00;15.93;;;9.30;99.90;;;8.02;95.97;101854.25;4952673;28;20039;-83
2022/04/29 00:57:27;;;;;;;21.30;14.55;;;9.20;99.90;;;7.99;95.94;101849.09;4941424;29;20051;-83
2022/04/29 01:00:02;;;;;;;25.27;14.48;;;9.20;99.90;;;7.91;96.53;101847.06;4946190;28;20047;-83
2022/04/29 01:02:32;;;;;;;21.60;14.48;;;9.10;99.90;;;7.88;96.32;101847.34;4948204;28;20098;-83
2022/04/29 01:05:05;;;;;;;26.35;14.50;;;9.10;99.90;;;7.88;96.28;101839.22;4950027;28;20044;-83
2022/04/29 01:07:33;;;;;;;26.95;14.63;;;9.30;99.90;;;7.80;96.56;101839.84;4950876;28;20081;-83
2022/04/29 01:10:00;;;;;;;22.80;14.70;;;9.00;99.90;;;7.77;96.73;101845.56;4949889;28;20050;-83
2022/04/29 01:12:32;;;;;;;23.92;15.50;;;8.90;99.90;;;7.76;96.68;101838.41;4950334;29;20051;-83
2022/04/29 01:15:04;;;;;;;24.30;14.70;;;8.90;99.90;;;7.72;96.53;101841.53;4965260;28;20474;-83
2022/04/29 01:17:34;;;;;;;27.35;15.25;;;8.80;99.90;;;7.71;96.37;101834.38;4958799;28;20048;-83
2022/04/29 01:20:04;;;;;;;27.17;15.23;;;8.80;99.90;;;7.66;96.31;101837.50;4947579;29;20514;-83
2022/04/29 01:22:33;;;;;;;24.45;15.32;;;8.80;99.90;;;7.62;96.58;101836.91;4950137;28;20039;-83
2022/04/29 01:25:01;;;;;;;23.70;15.02;;;8.80;99.90;;;7.62;96.78;101836.06;4966609;28;20440;-82
2022/04/29 01:27:29;;;;;;;27.17;16.13;;;8.80;99.90;;;7.62;96.85;101830.63;4949864;28;20557;-83
2022/04/29 01:30:02;;;;;;;27.38;15.90;;;8.80;99.90;;;7.58;96.81;101824.63;4950145;28;20047;-83
2022/04/29 01:32:32;;;;;;;26.90;16.65;;;8.80;99.90;;;7.58;96.86;101821.91;4966063;28;20051;-83
2022/04/29 01:35:00;;;;;;;25.88;16.33;;;8.70;99.90;;;7.57;97.26;101827.47;4951022;28;20047;-83
2022/04/29 01:37:27;;;;;;;28.48;15.95;;;8.70;99.90;;;7.53;97.83;101820.59;4953492;28;20498;-83
2022/04/29 01:39:56;;;;;;;29.98;17.92;;;8.70;99.90;;;7.54;97.74;101814.16;4953188;28;20043;-83
2022/04/29 01:42:23;;;;;;;34.13;17.10;;;8.60;99.90;;;7.63;98.11;101813.38;4952480;29;20044;-83
2022/04/29 01:44:51;;;;;;;31.55;17.92;;;8.70;99.90;;;7.65;97.90;101808.69;4953134;28;20039;-83
2022/04/29 01:47:19;;;;;;;29.30;17.30;;;8.70;99.90;;;7.70;98.13;101805.59;4952956;28;20134;-83
2022/04/29 01:50:04;;;;;;;27.73;16.95;;;8.70;99.90;;;7.76;97.63;101805.91;4953333;29;20065;-83
2022/04/29 01:52:33;;;;;;;30.42;17.42;;;8.80;99.90;;;7.81;97.54;101802.81;4966703;28;20051;-83
2022/04/29 01:55:02;;;;;;;33.92;17.02;;;8.90;99.90;;;7.80;98.04;101801.91;4958097;28;20061;-83
2022/04/29 01:57:31;;;;;;;32.33;16.90;;;8.90;99.90;;;7.85;97.94;101803.41;4953035;28;20043;-83
2022/04/29 01:59:59;;;;;;;29.17;16.80;;;9.00;99.90;;;7.86;97.17;101810.50;4952161;28;20059;-83
2022/04/29 02:02:42;;;;;;;26.30;16.67;;;9.00;99.90;;;7.86;97.81;101824.06;4935372;29;20517;-83
2022/04/29 02:05:11;;;;;;;25.85;16.00;;;9.00;99.90;;;7.87;97.75;101812.25;4952235;28;20923;-83
2022/04/29 02:07:38;;;;;;;26.25;15.77;;;9.00;99.90;;;7.88;97.55;101817.53;4938137;28;20070;-83
2022/04/29 02:10:09;;;;;;;26.60;15.65;;;9.10;99.90;;;7.82;98.05;101815.34;4960775;28;20044;-83
2022/04/29 02:12:36;;;;;;;29.70;15.97;;;9.00;99.90;;;7.83;97.67;101815.22;4934096;29;20123;-83
2022/04/29 02:15:30;;;;;;;24.00;14.90;;;9.00;99.90;;;7.86;97.72;101810.50;4944438;29;20047;-83
2022/04/29 02:18:02;;;;;;;36.10;16.38;;;9.00;99.90;;;7.82;98.63;101810.81;4952440;28;20413;-83
2022/04/29 02:20:30;;;;;;;26.45;14.93;;;9.00;99.90;;;7.87;97.82;101809.53;4952391;28;20047;-83
2022/04/29 02:22:58;;;;;;;28.85;15.93;;;9.10;99.90;;;7.90;97.17;101809.25;4952872;28;20047;-83
2022/04/29 02:25:27;;;;;;;25.23;14.25;;;9.10;99.90;;;7.87;97.31;101809.53;4952661;28;20051;-83
2022/04/29 02:27:54;;;;;;;26.67;14.95;;;9.10;99.90;;;7.87;97.59;101806.81;4953933;28;20066;-83
2022/04/29 02:30:22;;;;;;;21.42;13.90;;;9.10;99.90;;;7.89;97.46;101794.00;4951641;28;20051;-83
2022/04/29 02:32:49;;;;;;;28.83;14.80;;;9.10;99.90;;;7.94;97.20;101797.13;4954481;28;20121;-83
2022/04/29 02:35:16;;;;;;;25.98;14.43;;;9.10;99.90;;;7.94;97.13;101799.84;4950647;28;20051;-83
2022/04/29 02:37:44;;;;;;;24.60;15.02;;;9.20;99.90;;;7.96;97.02;101806.00;4940189;28;20043;-83
2022/04/29 02:40:12;;;;;;;24.42;14.80;;;9.20;99.90;;;7.91;96.81;101808.25;4970181;28;20062;-83
2022/04/29 02:42:42;;;;;;;23.73;13.48;;;9.20;99.90;;;7.91;96.74;101797.41;4959237;28;20047;-83
2022/04/29 02:45:11;;;;;;;26.25;13.43;;;9.20;99.90;;;7.89;97.27;101799.41;4952381;29;20502;-83
2022/04/29 02:47:50;;;;;;;25.63;14.35;;;9.10;99.90;;;7.93;97.31;101801.69;4968587;28;20052;-83
2022/04/29 02:50:17;;;;;;;26.50;13.20;;;9.20;99.90;;;7.83;96.77;101798.94;4971827;28;20081;-83
2022/04/29 02:52:55;;;;;;;25.30;13.10;;;9.20;99.90;;;7.86;96.99;101803.22;4958795;28;20042;-83
2022/04/29 02:55:22;;;;;;;24.88;12.48;;;9.10;99.90;;;7.87;96.69;101794.13;4955188;28;20456;-83
2022/04/29 02:58:11;;;;;;;24.35;12.98;;;9.20;99.90;;;7.78;97.66;101798.50;4957271;28;20133;-83
2022/04/29 03:00:39;;;;;;;35.50;12.88;;;9.20;99.90;;;7.82;96.98;101801.78;4933048;29;20418;-83
2022/04/29 03:03:07;;;;;;;23.45;12.50;;;9.20;99.90;;;7.86;96.97;101794.25;4950279;28;20070;-83
2022/04/29 03:05:34;;;;;;;29.17;12.80;;;9.20;99.90;;;7.78;96.56;101803.06;4948372;29;20119;-83
2022/04/29 03:08:01;;;;;;;22.35;12.05;;;9.20;99.90;;;7.71;96.71;101797.34;4950429;28;20110;-83
2022/04/29 03:10:30;;;;;;;19.85;11.65;;;9.10;99.90;;;7.65;96.92;101800.56;4970582;28;20428;-83
2022/04/29 03:12:57;;;;;;;25.92;11.88;;;9.10;99.90;;;7.46;97.39;101804.00;4954510;28;20581;-83
2022/04/29 03:15:33;;;;;;;23.35;11.48;;;9.20;99.90;;;7.53;97.58;101804.34;4940765;29;20048;-83
2022/04/29 03:20:48;;;;;;;20.25;11.45;;;9.00;99.90;;;7.64;96.85;101804.28;4951999;28;20051;-85
2022/04/29 03:23:17;;;;;;;23.48;10.95;;;9.00;99.90;;;7.63;96.53;101798.00;4950248;28;20589;-90
2022/04/29 03:25:52;;;;;;;22.33;11.25;;;9.00;99.90;;;7.66;96.24;101794.16;4952027;29;20437;-89
2022/04/29 03:28:20;;;;;;;23.38;10.13;;;9.00;99.90;;;7.70;95.44;101795.59;4959317;28;20074;-90
2022/04/29 03:30:49;;;;;;;22.00;10.30;;;8.90;99.90;;;7.59;95.71;101792.97;4956653;28;20051;-90
2022/04/29 03:33:17;;;;;;;27.02;11.00;;;8.90;99.90;;;7.62;95.61;101798.97;4951346;28;20058;-89
2022/04/29 03:35:49;;;;;;;21.90;10.70;;;8.90;99.90;;;7.64;95.49;101805.13;4951569;28;20047;-89
2022/04/29 03:38:25;;;;;;;18.10;10.00;;;8.90;99.90;;;7.63;95.76;101795.28;4972365;28;20134;-89
2022/04/29 03:40:53;;;;;;;21.40;10.18;;;8.90;99.90;;;7.59;96.00;101793.81;4954345;28;20066;-88
2022/04/29 03:43:23;;;;;;;21.25;10.38;;;8.90;99.90;;;7.52;96.37;101798.06;4951552;28;20055;-89
2022/04/29 03:45:53;;;;;;;21.50;10.07;;;8.90;99.90;;;7.52;96.09;101792.66;4950970;28;20138;-88
2022/04/29 03:49:35;;;;;;;20.63;9.88;;;8.90;99.90;;;7.57;95.53;101792.25;4953624;28;20047;-89
2022/04/29 03:51:31;;;;;;;21.02;9.68;;;8.90;99.90;;;7.57;94.96;101789.53;4946903;28;20126;-90
2022/04/29 03:53:58;;;;;;;18.52;10.57;;;8.90;99.90;;;7.60;95.06;101786.56;4942677;28;20138;-89
2022/04/29 03:56:26;;;;;;;19.85;9.38;;;8.90;99.90;;;7.64;94.92;101786.16;4953246;28;20592;-90
2022/04/29 03:58:54;;;;;;;24.02;9.90;;;8.80;99.90;;;7.66;94.89;101785.19;4949924;28;20048;-90
2022/04/29 04:01:23;;;;;;;24.58;10.30;;;8.80;99.90;;;7.62;94.85;101782.72;4962648;28;20078;-90
2022/04/29 04:03:56;;;;;;;17.52;9.55;;;9.00;99.90;;;7.61;95.10;101780.16;4950317;29;20099;-89
2022/04/29 04:09:08;;;;;;;19.20;9.15;;;8.80;99.90;;;7.65;94.23;101778.88;4941721;28;20051;-89
2022/04/29 04:11:37;;;;;;;22.08;9.15;;;8.80;99.90;;;7.66;94.81;101782.47;4956355;28;20047;-89
2022/04/29 04:14:05;;;;;;;17.98;10.07;;;8.80;99.90;;;7.60;95.01;101783.88;4953973;28;20472;-89
2022/04/29 04:16:36;;;;;;;22.70;9.25;;;8.80;99.90;;;7.56;95.14;101782.41;4950028;29;20106;-89
2022/04/29 04:19:05;;;;;;;22.13;9.85;;;8.90;99.90;;;7.55;94.35;101777.97;4951622;28;20070;-88
2022/04/29 04:21:32;;;;;;;21.35;10.63;;;8.70;99.90;;;7.48;95.18;101776.78;4951087;28;20149;-89
2022/04/29 04:24:00;;;;;;;18.15;10.00;;;8.80;99.90;;;7.50;95.22;101777.50;4966981;28;20502;-90
2022/04/29 04:26:28;;;;;;;24.33;10.80;;;8.80;99.90;;;7.52;95.71;101780.94;4931617;29;20048;-89
2022/04/29 04:28:59;;;;;;;26.40;10.73;;;8.80;99.90;;;7.53;95.25;101794.34;4963168;28;20505;-89
2022/04/29 04:31:29;;;;;;;27.75;11.02;;;8.80;99.90;;;7.47;95.27;101783.22;4972561;28;20043;-88
2022/04/29 04:33:58;;;;;;;22.35;10.32;;;8.80;99.90;;;7.49;95.33;101792.06;4937357;28;20056;-88
2022/04/29 04:36:25;;;;;;;25.08;10.55;;;8.80;99.90;;;7.49;94.94;101789.34;4966759;28;20035;-88
2022/04/29 04:38:53;;;;;;;25.17;11.63;;;8.70;99.90;;;7.49;95.43;101792.06;4963450;28;20051;-89
2022/04/29 04:41:20;;;;;;;21.02;10.55;;;8.80;99.90;;;7.37;95.11;101784.00;4969985;28;20054;-90
2022/04/29 04:43:49;;;;;;;23.30;10.70;;;8.80;99.90;;;7.46;95.43;101786.91;4959638;28;20525;-89
2022/04/29 04:46:17;;;;;;;20.80;11.35;;;8.80;99.90;;;7.36;95.64;101792.25;4947467;28;20052;-89
2022/04/29 04:49:07;;;;;;;21.45;11.43;;;8.80;99.90;;;7.26;96.08;101792.19;4941059;28;20111;-90
2022/04/29 04:51:53;;;;;;;29.55;11.48;;;8.80;99.90;;;7.37;96.54;101789.41;4951842;29;20053;-90
2022/04/29 04:54:21;;;;;;;24.80;10.48;;;8.90;99.90;;;7.47;96.11;101791.34;4948667;28;20057;-89
2022/04/29 04:56:48;;;;;;;22.85;10.65;;;8.80;99.90;;;7.53;95.65;101788.94;4949692;28;20043;-88
2022/04/29 04:59:16;;;;;;;26.25;10.73;;;8.80;99.90;;;7.58;95.67;101777.72;4965121;28;20252;-90
2022/04/29 05:01:43;;;;;;;30.52;11.88;;;8.80;99.90;;;7.62;95.81;101788.16;4950584;29;20074;-88
2022/04/29 05:04:30;;;;;;;25.13;10.93;;;8.80;99.90;;;7.66;95.19;101782.47;4952051;28;20058;-88
2022/04/29 05:07:18;;;;;;;22.08;11.15;;;8.80;99.90;;;7.62;94.98;101788.16;4960272;28;20061;-90
2022/04/29 05:09:45;;;;;;;23.55;11.20;;;8.90;99.90;;;7.67;95.76;101785.00;4954584;28;20051;-87
2022/04/29 05:12:14;;;;;;;22.73;11.40;;;8.90;99.90;;;7.71;95.51;101789.19;4954106;28;20047;-89
2022/04/29 05:15:02;;;;;;;22.30;11.23;;;8.90;99.90;;;7.71;95.68;101785.59;4954039;28;20054;-87
2022/04/29 05:17:30;;;;;;;26.30;13.02;;;8.90;99.90;;;7.70;95.01;101792.03;4946687;29;20077;-88
2022/04/29 05:20:18;;;;;;;21.95;11.10;;;8.90;99.90;;;7.72;95.09;101785.47;4954052;28;20150;-89
2022/04/29 05:22:50;;;;;;;23.30;12.18;;;8.90;99.90;;;7.73;94.82;101787.22;4951220;29;20097;-88
2022/04/29 05:25:17;;;;;;;30.13;12.02;;;8.90;99.90;;;7.74;95.10;101791.63;4965704;28;20048;-89
2022/04/29 05:28:04;;;;;;;25.40;11.70;;;9.00;99.90;;;7.73;95.15;101783.63;4947276;28;20141;-88
2022/04/29 05:30:50;;;;;;;27.83;12.60;;;9.00;99.90;;;7.70;94.76;101784.75;4954469;28;20050;-88
2022/04/29 05:33:56;;;;;;;25.55;12.73;;;9.00;99.90;;;7.76;94.84;101778.78;4933433;29;20050;-88
2022/04/29 05:36:44;;;;;;;31.73;12.73;;;9.00;99.90;;;7.80;95.03;101788.38;4933153;29;20628;-88
2022/04/29 05:42:15;;;;;;;27.48;13.32;;;9.00;99.90;;;7.43;95.75;101790.75;4966192;28;20143;-88
2022/04/29 05:44:43;;;;;;;32.65;12.63;;;9.00;99.90;;;7.51;96.05;101784.66;4954556;28;20043;-88
2022/04/29 05:47:11;;;;;;;28.25;12.18;;;8.90;99.90;;;7.67;95.29;101787.72;4953646;28;20054;-88
2022/04/29 05:49:39;;;;;;;26.70;11.40;;;9.00;99.90;;;7.66;95.41;101777.91;4953129;28;20056;-88
2022/04/29 05:52:10;;;;;;;27.05;12.18;;;9.10;99.90;;;7.78;95.46;101776.81;4966642;28;20048;-88
2022/04/29 05:54:41;;;;;;;31.85;13.00;;;9.20;99.90;;;7.88;96.10;101776.00;4953538;28;20409;-88
2022/04/29 05:57:09;;;;;;;23.67;11.60;;;9.20;99.90;;;7.94;94.82;101772.72;4953157;28;20111;-88
2022/04/29 05:59:36;;;;;;;30.42;13.65;;;9.30;99.90;;;8.04;94.38;101776.38;4951414;28;20044;-88
2022/04/29 06:02:24;;;;;;;25.33;13.13;;;9.30;99.90;;;8.11;94.16;101766.69;4953792;28;20062;-88
2022/04/29 06:05:02;;;;;;;26.58;12.68;;;9.30;99.90;;;8.18;93.80;101775.97;4968425;28;20059;-88
2022/04/29 06:07:31;;;;;;;28.83;13.05;;;9.40;99.90;;;8.28;93.71;101777.84;4966670;28;20058;-88
2022/04/29 06:09:58;;;;;;;27.42;12.35;;;9.40;99.90;;;8.34;93.29;101780.00;4964544;28;20103;-88
2022/04/29 06:12:26;;;;;;;27.55;12.75;;;9.50;99.90;;;8.41;92.66;101790.22;4952176;28;20090;-88
2022/04/29 06:14:53;;;;;;;26.63;12.32;;;9.60;99.90;;;8.46;93.01;101789.78;4957100;28;20066;-88
2022/04/29 06:17:59;;;;;;;23.65;12.18;;;9.70;99.90;;;8.60;92.75;101789.41;4925888;29;20051;-88
2022/04/29 06:20:45;;;;;;;29.65;13.95;;;9.80;99.90;;;8.60;91.39;101788.53;4926097;29;20055;-89
2022/04/29 06:23:41;;;;;;;29.90;12.98;;;9.80;99.90;;;8.63;92.52;101790.97;4944982;29;20489;-94
2022/04/29 06:26:10;;;;;;;27.13;12.80;;;9.90;99.90;;;8.79;92.50;101787.69;4950716;28;20039;-93
2022/04/29 06:28:37;;;;;;;28.92;13.73;;;10.10;99.90;;;8.82;90.71;101784.72;4954911;28;20043;-94
2022/04/29 06:31:06;;;;;;;27.38;12.85;;;10.10;99.90;;;8.67;91.68;101781.53;4966130;28;20142;-94
2022/04/29 06:33:38;;;;;;;32.40;13.73;;;10.10;99.90;;;8.74;91.98;101787.28;4942903;29;20166;-96
2022/04/29 06:36:09;;;;;;;22.33;12.43;;;10.20;99.90;;;8.93;92.03;101787.28;4954702;28;20524;-95
2022/04/29 06:38:38;;;;;;;26.25;12.95;;;10.30;99.90;;;9.08;91.67;101781.41;4955346;28;20031;-95
2022/04/29 06:41:26;;;;;;;27.05;12.77;;;10.40;99.90;;;9.16;91.70;101784.28;4956648;28;20118;-96
2022/04/29 06:43:59;;;;;;;27.90;14.10;;;10.40;99.90;;;9.13;89.90;101784.56;4944160;28;20106;-95
2022/04/29 06:46:52;;;;;;;25.77;13.63;;;10.50;99.90;;;9.14;90.25;101775.44;4936606;29;20470;-95
2022/04/29 06:49:38;;;;;;;30.00;13.10;;;10.40;99.90;;;9.19;90.72;101767.69;4942113;28;20066;-95
2022/04/29 06:52:24;;;;;;;29.20;13.38;;;10.40;99.90;;;9.18;90.12;101774.13;4951123;29;20136;-93
2022/04/29 06:55:05;;;;;;;25.95;13.10;;;10.50;99.90;;;9.25;90.85;101782.53;4954425;28;20332;-94
2022/04/29 06:57:36;;;;;;;29.10;13.38;;;10.50;99.90;;;9.30;89.75;101772.97;4951517;28;20506;-91
2022/04/29 07:00:06;;;;;;;31.60;13.60;;;10.60;99.90;;;9.37;90.42;101776.81;4948023;28;20047;-89
2022/04/29 07:02:34;;;;;;;26.23;13.15;;;10.70;99.90;;;9.35;90.02;101777.97;4951102;28;20082;-89
2022/04/29 07:05:03;;;;;;;27.40;13.93;;;10.70;99.90;;;9.39;89.55;101790.25;4964074;28;20459;-88
2022/04/29 07:07:31;;;;;;;24.25;12.65;;;10.80;99.90;;;9.31;88.89;101788.25;4951493;28;20075;-90
2022/04/29 07:10:18;;;;;;;25.73;13.77;;;10.80;99.90;;;9.42;89.34;101780.94;4947278;28;20047;-89
2022/04/29 07:13:14;;;;;;;32.67;14.27;;;10.80;99.90;;;9.48;89.22;101788.50;4942269;28;20051;-88
2022/04/29 07:15:43;;;;;;;26.58;13.95;;;10.80;99.90;;;9.59;89.59;101772.03;4966567;28;20501;-88
2022/04/29 07:18:31;;;;;;;27.42;13.68;;;10.90;99.90;;;9.78;89.25;101779.28;4951486;28;20044;-88
2022/04/29 07:20:59;;;;;;;27.13;13.85;;;11.20;99.90;;;9.98;88.51;101774.63;4951057;28;20075;-88
2022/04/29 07:23:26;;;;;;;26.98;13.98;;;11.30;99.90;;;10.04;87.14;101782.19;4964686;28;20555;-89
2022/04/29 07:25:53;;;;;;;33.88;13.73;;;11.40;99.40;;;9.96;86.94;101782.94;4946243;28;20070;-89
2022/04/29 07:28:22;;;;;;;25.75;13.88;;;11.50;98.80;;;10.17;86.97;101768.25;4951137;28;20062;-89
2022/04/29 07:30:49;;;;;;;26.02;13.00;;;11.60;98.80;;;10.34;86.53;101758.44;4940206;28;20045;-89
2022/04/29 07:33:37;;;;;;;23.35;12.63;;;11.70;98.30;;;10.48;86.53;101765.22;4947400;28;20047;-89
2022/04/29 07:41:54;;;;;;;25.30;12.40;;;12.20;97.60;;;10.87;84.58;101754.03;4964978;28;20047;-89
2022/04/29 07:44:25;;;;;;;20.77;12.45;;;12.20;97.30;;;10.95;83.84;101754.13;4951152;29;20054;-89
2022/04/29 07:46:53;;;;;;;29.58;12.15;;;12.30;96.90;;;11.00;83.96;101757.22;4970604;28;20046;-88
2022/04/29 07:49:39;;;;;;;26.30;12.98;;;12.40;96.50;;;11.11;84.49;101764.31;4943001;28;20054;-89
2022/04/29 07:52:08;;;;;;;23.13;13.00;;;12.50;96.90;;;11.14;83.13;101764.00;4949337;28;20421;-89
2022/04/29 07:54:36;;;;;;;30.00;12.68;;;12.50;96.20;;;11.09;82.65;101753.56;4949674;28;20134;-89
2022/04/29 07:57:05;;;;;;;20.92;12.07;;;12.60;94.70;;;11.07;81.67;101755.59;4951201;28;20137;-89
2022/04/29 07:59:34;;;;;;;26.48;13.05;;;12.60;94.90;;;11.11;83.56;101754.25;4949189;28;20090;-88
2022/04/29 08:02:21;;;;;;;25.88;13.30;;;12.60;96.00;;;11.15;82.89;101760.25;4950501;28;20055;-89
2022/04/29 08:04:48;;;;;;;25.70;11.95;;;12.60;95.10;;;11.12;82.90;101749.69;4964317;28;20043;-89
2022/04/29 08:07:16;;;;;;;24.52;12.75;;;12.60;95.70;;;11.12;82.33;101747.81;4955273;28;20141;-88
2022/04/29 08:09:43;;;;;;;24.45;13.25;;;12.50;95.50;;;11.02;82.68;101754.34;4966998;28;20117;-89
2022/04/29 08:12:14;;;;;;;22.27;12.93;;;12.50;95.60;;;10.91;84.03;101750.03;4950145;28;20465;-89
2022/04/29 08:15:12;;;;;;;29.33;13.48;;;12.50;96.30;;;10.96;83.49;101751.22;4946232;28;20047;-88
2022/04/29 08:18:12;;;;;;;26.73;12.67;;;12.50;95.30;;;10.99;83.67;101751.97;4944504;28;20514;-88
2022/04/29 08:20:40;;;;;;;22.30;12.32;;;12.50;96.50;;;11.01;85.48;101750.78;4958432;28;20051;-89
2022/04/29 08:23:09;;;;;;;27.42;12.68;;;12.50;97.20;;;10.90;84.06;101754.59;4961141;28;20043;-89
2022/04/29 08:25:37;;;;;;;27.30;12.50;;;12.50;96.00;;;10.81;83.21;101750.06;4966507;28;20266;-88
2022/04/29 08:28:06;;;;;;;25.55;13.75;;;12.40;95.50;;;10.83;84.50;101750.78;4950209;28;20051;-88
2022/04/29 08:30:34;;;;;;;28.30;13.02;;;12.40;96.50;;;10.90;85.41;101754.59;4964531;28;20040;-89
2022/04/29 08:33:02;;;;;;;26.52;13.55;;;12.50;97.10;;;10.93;84.56;101748.84;4931569;29;20035;-89
2022/04/29 08:35:37;;;;;;;28.23;12.82;;;12.50;96.50;;;10.94;84.79;101749.69;4966747;28;20057;-89
2022/04/29 08:38:04;;;;;;;24.33;12.68;;;12.50;96.70;;;10.94;84.32;101752.41;4949693;28;20078;-88
2022/04/29 08:40:43;;;;;;;24.10;11.77;;;12.50;96.40;;;11.01;85.47;101760.81;4973751;28;20133;-89
2022/04/29 08:43:12;;;;;;;21.15;12.43;;;12.60;96.90;;;11.04;85.25;101755.03;4990216;28;20046;-89
2022/04/29 08:45:42;;;;;;;24.08;12.40;;;12.60;97.10;;;11.00;84.43;101759.09;4964625;28;20051;-92
2022/04/29 08:48:10;;;;;;;25.50;13.13;;;12.60;96.20;;;11.06;84.86;101753.00;4956627;28;20062;-94
2022/04/29 08:50:40;;;;;;;;;;;12.60;96.70;;;11.10;85.39;101765.31;4975180;28;20130;-93
2022/04/29 08:53:08;;;;;;;23.63;12.60;;;12.60;96.90;;;11.09;84.37;101752.72;4955227;28;19990;-93
2022/04/29 08:58:39;;;;;;;23.13;11.30;;;12.70;96.10;;;11.21;84.92;101754.16;4953903;28;20049;-91
2022/04/29 09:01:10;;;;;;;25.63;12.25;;;12.70;96.70;;;11.32;84.66;101753.06;4957297;28;20093;-90
2022/04/29 09:03:38;;;;;;;23.67;13.15;;;12.80;96.80;;;11.42;83.99;101759.25;4950884;28;20577;-90
2022/04/29 09:06:07;;;;;;;25.70;12.23;;;12.80;96.40;;;11.49;84.46;101752.16;4951687;29;20048;-91
2022/04/29 09:08:42;;;;;;;24.85;12.85;;;12.90;96.80;;;11.58;83.19;101750.34;4953672;28;20049;-91
2022/04/29 09:11:12;;;;;;;27.65;13.85;;;12.90;96.00;;;11.59;81.52;101749.31;4971743;28;20489;-91
2022/04/29 09:13:40;;;;;;;25.95;12.30;;;12.90;94.90;;;11.67;82.32;101752.13;4961489;28;20497;-91
2022/04/29 09:16:12;;;;;;;23.27;13.45;;;13.00;95.70;;;11.76;82.82;101743.97;4953714;28;20505;-91
2022/04/29 09:18:43;;;;;;;24.15;13.15;;;13.10;96.10;;;11.79;82.54;101744.50;4948793;28;20048;-90
2022/04/29 09:21:14;;;;;;;30.20;13.87;;;13.10;95.50;;;11.82;81.22;101748.75;4953788;28;20138;-88
2022/04/29 09:23:44;;;;;;;22.75;12.85;;;13.10;94.30;;;11.88;81.56;101743.53;4947115;28;20062;-88
2022/04/29 09:26:35;;;;;;;26.50;13.65;;;13.20;94.20;;;11.95;80.89;101756.53;4953685;28;20054;-88
2022/04/29 09:29:14;;;;;;;28.83;14.82;;;13.20;94.10;;;11.95;78.74;101757.41;4947746;28;20122;-88
2022/04/29 09:32:11;;;;;;;31.05;13.52;;;13.30;93.20;;;11.98;79.84;101754.34;4951062;28;20513;-88
2022/04/29 09:34:58;;;;;;;28.55;13.77;;;13.30;93.50;;;12.00;79.47;101755.03;4954886;28;20165;-89
2022/04/29 09:37:27;;;;;;;23.92;13.27;;;13.30;93.00;;;12.00;79.25;101755.03;4954537;28;20525;-88
2022/04/29 09:39:55;;;;;;;25.20;13.27;;;13.30;92.80;;;12.05;80.02;101755.41;4949702;28;20039;-88
2022/04/29 09:42:23;;;;;;;28.40;14.13;;;13.40;93.60;;;12.08;79.58;101756.94;4956135;28;20133;-88
2022/04/29 09:44:51;;;;;;;25.65;13.60;;;13.40;92.80;;;12.05;79.27;101760.88;4944355;28;20142;-87
2022/04/29 09:47:21;;;;;;;23.88;13.10;;;13.40;93.20;;;12.06;77.31;101751.66;4951791;28;20043;-87
2022/04/29 09:49:56;;;;;;;22.65;12.45;;;13.40;91.40;;;12.08;78.97;101752.34;4954652;28;20094;-90
2022/04/29 09:52:24;;;;;;;29.55;13.18;;;13.50;92.50;;;12.08;78.29;101752.34;4952575;28;20039;-95
2022/04/29 09:54:52;;;;;;;23.70;13.20;;;13.50;92.50;;;12.08;77.37;101754.22;4958334;28;20143;-94
2022/04/29 09:57:23;;;;;;;24.63;13.10;;;13.50;91.60;;;12.09;78.19;101745.88;4937229;29;20063;-96
2022/04/29 09:59:53;;;;;;;32.13;12.88;;;13.50;91.90;;;12.13;78.47;101758.16;4952738;28;20521;-96
2022/04/29 10:02:24;;;;;;;25.63;12.27;;;13.60;92.40;;;12.14;78.00;101756.28;4959578;28;20043;-95
2022/04/29 10:04:57;;;;;;;31.30;14.18;;;13.60;91.70;;;12.15;76.46;101752.56;4955191;28;20051;-90
2022/04/29 10:07:26;;;;;;;23.25;12.80;;;13.60;90.70;;;12.19;76.85;101747.63;4953902;28;20055;-95
2022/04/29 10:10:00;;;;;;;26.85;13.00;;;13.60;90.60;;;12.20;77.42;101743.84;4967983;28;20067;-94
2022/04/29 10:12:29;;;;;;;26.40;13.30;;;13.50;91.30;;;12.31;77.66;101755.31;4954868;28;20129;-94
2022/04/29 10:15:24;;;;;;;23.83;12.55;;;13.60;91.80;;;12.39;77.03;101751.75;4955581;28;20068;-94
2022/04/29 10:21:19;;;;;;;31.38;13.00;;;13.80;90.40;;;12.52;77.19;101738.47;4948139;28;20536;-94
2022/04/29 10:23:52;;;;;;;25.13;12.40;;;13.90;91.60;;;12.61;77.61;101749.44;4952577;29;20388;-94
2022/04/29 10:26:22;;;;;;;26.55;11.60;;;14.00;91.50;;;12.64;77.97;101746.34;4952504;29;20087;-94
2022/04/29 10:28:50;;;;;;;23.20;11.20;;;14.00;91.90;;;12.66;77.61;101747.91;4954592;28;20526;-95
2022/04/29 10:31:19;;;;;;;26.95;11.38;;;14.00;91.80;;;12.68;75.94;101759.53;4949232;28;20043;-94
2022/04/29 10:33:49;;;;;;;23.23;10.55;;;14.00;90.10;;;12.66;76.10;101752.50;4970995;28;20043;-95
2022/04/29 10:36:22;;;;;;;19.37;10.93;;;14.00;90.50;;;12.66;77.05;101749.78;4970959;28;20059;-94
2022/04/29 10:39:00;;;;;;;17.27;9.45;;;14.00;91.00;;;12.70;75.51;101756.63;4960012;28;20524;-94
2022/04/29 10:41:27;;;;;;;20.85;9.52;;;14.00;90.10;;;12.67;75.53;101748.75;4960290;28;20094;-94
2022/04/29 10:44:05;;;;;;;23.73;9.45;;;14.00;89.70;;;12.72;74.94;101757.31;4951776;28;20066;-94
2022/04/29 10:46:35;;;;;;;23.45;9.20;;;14.00;89.10;;;12.79;74.08;101752.03;4951924;28;20103;-94
2022/04/29 10:49:30;;;;;;;21.55;9.20;;;14.10;89.00;;;12.85;73.36;101746.75;4946680;28;20054;-94